Time;durP1;ratioP1;P1;durP2;ratioP2;P2;SDS_P1;SDS_P2;PMS_P1;PMS_P2;Temp;Humidity;BMP_temperature;BMP_pressure;BME280_temperature;BME280_humidity;BME280_pressure;Samples;Min_cycle;Max_cycle;Signal;HPM_P1;HPM_P2
2022/07/25 00:00:02;;;;;;;5.25;4.63;;;21.80;53.50;;;;;;5040176;28;20084;-58
2022/07/25 00:02:28;;;;;;;6.95;4.55;;;21.70;53.60;;;;;;5033972;28;20045;-61
2022/07/25 00:04:54;;;;;;;6.93;5.10;;;21.70;54.40;;;;;;5053363;28;20459;-58
2022/07/25 00:07:20;;;;;;;7.47;4.82;;;21.70;53.90;;;;;;5037632;28;20032;-59
2022/07/25 00:09:46;;;;;;;7.47;4.78;;;21.70;54.00;;;;;;5039177;28;20175;-59
2022/07/25 00:12:12;;;;;;;5.68;5.00;;;21.60;54.10;;;;;;5041191;28;20033;-58
2022/07/25 00:14:37;;;;;;;5.65;4.85;;;21.60;54.00;;;;;;5038083;28;20026;-59
2022/07/25 00:17:03;;;;;;;6.72;4.93;;;21.60;54.10;;;;;;5028853;28;20030;-59
2022/07/25 00:19:29;;;;;;;6.82;4.88;;;21.50;54.00;;;;;;5039642;28;20133;-59
2022/07/25 00:21:54;;;;;;;7.45;4.55;;;21.50;53.90;;;;;;5044306;28;20050;-59
2022/07/25 00:24:20;;;;;;;6.47;5.55;;;21.50;54.10;;;;;;5036370;28;20041;-60
2022/07/25 00:26:47;;;;;;;5.28;4.70;;;21.50;54.20;;;;;;4964853;28;20032;-59
2022/07/25 00:29:13;;;;;;;7.55;5.63;;;21.40;54.30;;;;;;5041558;28;20049;-58
2022/07/25 00:31:38;;;;;;;6.72;5.65;;;21.40;54.60;;;;;;5043976;28;20033;-58
2022/07/25 00:34:04;;;;;;;7.68;5.32;;;21.40;54.70;;;;;;5039372;28;20103;-59
2022/07/25 00:36:30;;;;;;;7.45;5.15;;;21.40;54.80;;;;;;5054047;28;20013;-59
2022/07/25 00:38:56;;;;;;;6.20;5.22;;;21.40;54.80;;;;;;5039197;28;20037;-59
2022/07/25 00:41:21;;;;;;;6.90;5.18;;;21.30;54.70;;;;;;5036611;28;20115;-59
2022/07/25 00:43:47;;;;;;;5.00;4.50;;;21.30;54.80;;;;;;5043510;28;20033;-58
2022/07/25 00:46:14;;;;;;;6.72;5.22;;;21.30;54.70;;;;;;5030613;28;20044;-59
2022/07/25 00:48:40;;;;;;;7.00;5.07;;;21.30;54.90;;;;;;5024840;28;20097;-59
2022/07/25 00:51:07;;;;;;;5.35;4.85;;;21.30;55.10;;;;;;5023355;28;20057;-60
2022/07/25 00:53:34;;;;;;;6.22;4.90;;;21.20;55.20;;;;;;5037711;28;20064;-59
2022/07/25 00:56:00;;;;;;;6.20;4.72;;;21.20;55.10;;;;;;5039608;28;20033;-59
2022/07/25 00:58:26;;;;;;;8.40;5.22;;;21.20;54.90;;;;;;5037557;28;20033;-59
2022/07/25 01:00:51;;;;;;;6.43;5.03;;;21.10;55.00;;;;;;5044730;28;20140;-59
2022/07/25 01:03:17;;;;;;;6.38;4.60;;;21.10;55.00;;;;;;5025297;28;20633;-59
2022/07/25 01:05:43;;;;;;;6.40;4.75;;;21.10;55.10;;;;;;5029791;28;20025;-58
2022/07/25 01:08:09;;;;;;;5.95;5.20;;;21.10;55.30;;;;;;5054489;28;20029;-59
2022/07/25 01:10:36;;;;;;;7.70;5.28;;;21.00;55.40;;;;;;5036431;28;20029;-59
2022/07/25 01:13:02;;;;;;;8.23;5.47;;;21.00;55.60;;;;;;5037572;28;20121;-59
2022/07/25 01:15:28;;;;;;;7.32;5.57;;;21.00;55.50;;;;;;5055515;28;20029;-60
2022/07/25 01:17:53;;;;;;;10.18;5.68;;;20.90;55.50;;;;;;5034474;28;20526;-59
2022/07/25 01:20:21;;;;;;;5.22;4.72;;;20.90;55.60;;;;;;5053226;28;20117;-60
2022/07/25 01:22:47;;;;;;;6.15;4.90;;;20.90;56.00;;;;;;5039735;28;20044;-59
2022/07/25 01:25:14;;;;;;;6.35;5.20;;;20.80;56.10;;;;;;5055306;28;20035;-59
2022/07/25 01:27:41;;;;;;;5.57;4.90;;;20.80;56.20;;;;;;5043474;28;20148;-58
2022/07/25 01:30:10;;;;;;;7.13;5.47;;;20.80;56.30;;;;;;5034352;28;20040;-58
2022/07/25 01:32:36;;;;;;;6.75;5.10;;;20.80;56.10;;;;;;5043995;28;20055;-59
2022/07/25 01:35:04;;;;;;;6.05;5.45;;;20.80;56.10;;;;;;5036191;28;20074;-59
2022/07/25 01:37:30;;;;;;;5.68;5.07;;;20.80;56.40;;;;;;5046284;28;20030;-60
2022/07/25 01:39:55;;;;;;;7.20;5.35;;;20.80;56.40;;;;;;5036033;28;20060;-58
2022/07/25 01:42:21;;;;;;;7.40;5.00;;;20.70;56.40;;;;;;5032861;28;20706;-59
2022/07/25 01:44:47;;;;;;;6.88;5.20;;;20.70;56.50;;;;;;5043330;28;20056;-58
2022/07/25 01:47:13;;;;;;;6.00;5.00;;;20.70;56.50;;;;;;5046557;28;20034;-60
2022/07/25 01:49:39;;;;;;;6.40;5.35;;;20.70;56.60;;;;;;5030512;28;20037;-59
2022/07/25 01:52:05;;;;;;;8.73;5.45;;;20.70;56.80;;;;;;5055494;28;20180;-58
2022/07/25 01:54:31;;;;;;;7.53;5.57;;;20.60;56.70;;;;;;5043603;28;20060;-59
2022/07/25 01:56:57;;;;;;;8.50;5.72;;;20.60;56.90;;;;;;5044894;28;20033;-59
2022/07/25 01:59:23;;;;;;;8.20;5.32;;;20.60;57.00;;;;;;5048546;28;20033;-60
2022/07/25 02:01:48;;;;;;;6.18;5.03;;;20.60;57.00;;;;;;5035552;28;20061;-59
2022/07/25 02:04:14;;;;;;;7.78;5.78;;;20.60;57.10;;;;;;5026773;28;20041;-58
2022/07/25 02:06:43;;;;;;;8.68;5.07;;;20.60;57.20;;;;;;5036788;28;20033;-59
2022/07/25 02:09:09;;;;;;;9.40;6.00;;;20.60;57.30;;;;;;5048454;28;20030;-59
2022/07/25 02:11:36;;;;;;;5.95;5.35;;;20.50;57.30;;;;;;5045832;28;20033;-59
2022/07/25 02:14:02;;;;;;;9.32;5.82;;;20.50;57.30;;;;;;5046552;28;20067;-58
2022/07/25 02:16:27;;;;;;;11.00;5.65;;;20.50;57.30;;;;;;5032799;28;20030;-58
2022/07/25 02:18:54;;;;;;;7.30;5.57;;;20.50;57.30;;;;;;5035560;28;20055;-59
2022/07/25 02:21:20;;;;;;;7.13;5.40;;;20.50;57.40;;;;;;5042006;28;20033;-60
2022/07/25 02:23:45;;;;;;;6.32;5.30;;;20.50;57.40;;;;;;5030393;28;20038;-58
2022/07/25 02:26:13;;;;;;;8.90;5.65;;;20.50;57.50;;;;;;4937720;28;20033;-58
2022/07/25 02:28:39;;;;;;;7.32;5.75;;;20.40;57.50;;;;;;5047866;28;20054;-58
2022/07/25 02:31:06;;;;;;;7.22;5.50;;;20.40;57.50;;;;;;5037916;28;20025;-60
2022/07/25 02:33:31;;;;;;;5.75;5.22;;;20.40;57.50;;;;;;5049085;28;20095;-59
2022/07/25 02:35:57;;;;;;;6.10;5.50;;;20.30;57.50;;;;;;5045812;28;20529;-59
2022/07/25 02:38:23;;;;;;;5.53;4.93;;;20.30;57.60;;;;;;5063878;28;20037;-59
2022/07/25 02:40:50;;;;;;;9.02;5.65;;;20.30;57.90;;;;;;5034954;28;20038;-59
2022/07/25 02:43:16;;;;;;;8.23;5.88;;;20.30;58.00;;;;;;5035639;28;20038;-59
2022/07/25 02:45:42;;;;;;;6.25;5.45;;;20.30;58.10;;;;;;5032765;28;20022;-60
2022/07/25 02:48:08;;;;;;;6.38;5.18;;;20.20;58.00;;;;;;5034310;28;20022;-58
2022/07/25 02:50:35;;;;;;;7.22;5.55;;;20.20;57.90;;;;;;5043510;28;20095;-58
2022/07/25 02:53:00;;;;;;;7.38;5.75;;;20.20;58.00;;;;;;5038533;28;20037;-59
2022/07/25 02:55:26;;;;;;;6.45;5.85;;;20.20;58.10;;;;;;5040416;28;20030;-59
2022/07/25 02:57:52;;;;;;;9.60;5.82;;;20.20;58.10;;;;;;5039075;28;20121;-59
2022/07/25 03:00:18;;;;;;;8.35;5.63;;;20.10;58.00;;;;;;5043908;28;20079;-60
2022/07/25 03:02:44;;;;;;;9.80;5.30;;;20.10;58.10;;;;;;5044375;28;20103;-59
2022/07/25 03:05:13;;;;;;;7.78;5.60;;;20.10;58.20;;;;;;5033129;28;20021;-60
2022/07/25 03:07:40;;;;;;;11.57;6.35;;;20.10;58.90;;;;;;5028845;28;20029;-59
2022/07/25 03:10:07;;;;;;;6.47;5.82;;;20.10;58.30;;;;;;5048582;28;20060;-60
2022/07/25 03:12:32;;;;;;;6.60;5.50;;;20.10;58.40;;;;;;5040001;28;20114;-58
2022/07/25 03:14:59;;;;;;;7.32;5.93;;;20.00;58.30;;;;;;5058246;28;20041;-60
2022/07/25 03:17:25;;;;;;;10.30;6.18;;;20.00;58.50;;;;;;5063314;28;20099;-59
2022/07/25 03:19:51;;;;;;;6.90;5.60;;;20.00;58.60;;;;;;5040133;28;20034;-59
2022/07/25 03:22:16;;;;;;;8.00;6.00;;;20.00;58.60;;;;;;5043079;28;20096;-59
2022/07/25 03:24:42;;;;;;;10.73;7.10;;;20.00;58.70;;;;;;5041313;28;20110;-59
2022/07/25 03:27:08;;;;;;;8.85;5.40;;;20.00;58.70;;;;;;5041040;28;20032;-59
2022/07/25 03:29:34;;;;;;;8.50;6.05;;;20.00;58.70;;;;;;5038073;28;20471;-60
2022/07/25 03:31:59;;;;;;;6.68;5.90;;;19.90;58.70;;;;;;5045081;28;20022;-58
2022/07/25 03:34:25;;;;;;;7.75;5.63;;;19.90;58.90;;;;;;5042923;28;20040;-58
2022/07/25 03:36:51;;;;;;;6.57;5.47;;;19.90;58.90;;;;;;5054788;28;20025;-59
2022/07/25 03:39:17;;;;;;;8.23;5.40;;;19.90;59.10;;;;;;5028353;28;20052;-59
2022/07/25 03:41:43;;;;;;;8.55;5.97;;;19.90;59.10;;;;;;5035942;28;20609;-58
2022/07/25 03:44:08;;;;;;;6.78;5.70;;;19.90;59.20;;;;;;5031748;28;20051;-58
2022/07/25 03:46:34;;;;;;;9.27;6.40;;;19.90;59.10;;;;;;5035548;28;20035;-59
2022/07/25 03:49:00;;;;;;;6.72;6.05;;;19.90;59.30;;;;;;5026198;28;20082;-60
2022/07/25 03:51:25;;;;;;;7.40;5.78;;;19.90;59.40;;;;;;5057800;28;20028;-59
2022/07/25 03:54:07;;;;;;;7.68;6.30;;;19.80;59.20;;;;;;5033575;28;20029;-60
2022/07/25 03:56:39;;;;;;;9.65;6.35;;;19.80;59.20;;;;;;5044196;28;20048;-58
2022/07/25 03:59:06;;;;;;;9.68;6.38;;;19.80;59.70;;;;;;5032458;28;20021;-58
2022/07/25 04:01:33;;;;;;;9.65;6.15;;;19.80;59.40;;;;;;5039294;28;20018;-59
2022/07/25 04:03:59;;;;;;;8.32;6.13;;;19.80;59.30;;;;;;5026766;28;20033;-58
2022/07/25 04:06:25;;;;;;;7.38;5.90;;;19.70;59.40;;;;;;5046281;28;20025;-59
2022/07/25 04:08:51;;;;;;;8.10;5.93;;;19.80;59.50;;;;;;5039617;28;20766;-60
2022/07/25 04:11:16;;;;;;;10.25;6.10;;;19.80;59.70;;;;;;5040991;28;20067;-59
2022/07/25 04:13:42;;;;;;;9.80;6.43;;;19.70;59.70;;;;;;5042164;28;20092;-59
2022/07/25 04:16:08;;;;;;;7.88;6.50;;;19.80;59.90;;;;;;5038726;28;20026;-59
2022/07/25 04:18:34;;;;;;;8.13;5.68;;;19.70;59.90;;;;;;5042502;28;20113;-60
2022/07/25 04:21:01;;;;;;;7.22;5.93;;;19.70;59.80;;;;;;5033723;28;20068;-59
2022/07/25 04:23:27;;;;;;;6.88;5.72;;;19.70;59.70;;;;;;5023998;28;20034;-58
2022/07/25 04:25:54;;;;;;;7.88;5.93;;;19.70;59.70;;;;;;5040137;28;20039;-59
2022/07/25 04:28:19;;;;;;;7.00;6.20;;;19.70;59.70;;;;;;5040219;28;20057;-60
2022/07/25 04:30:45;;;;;;;8.05;6.60;;;19.70;59.80;;;;;;5037326;28;20045;-59
2022/07/25 04:33:12;;;;;;;8.55;5.78;;;19.70;59.80;;;;;;5023856;28;20069;-60
2022/07/25 04:35:37;;;;;;;7.72;6.05;;;19.80;60.00;;;;;;5037483;28;20025;-60
2022/07/25 04:38:03;;;;;;;10.13;7.07;;;19.80;60.90;;;;;;5036700;28;20037;-59
2022/07/25 04:40:29;;;;;;;8.75;6.13;;;19.80;60.30;;;;;;5034379;28;20037;-59
2022/07/25 04:42:55;;;;;;;9.52;6.03;;;19.90;60.40;;;;;;5040528;28;20487;-59
2022/07/25 04:45:20;;;;;;;7.43;6.18;;;20.00;60.20;;;;;;5031401;28;20042;-59
2022/07/25 04:47:46;;;;;;;9.20;6.03;;;20.00;60.10;;;;;;5038718;28;20030;-60
2022/07/25 04:50:12;;;;;;;13.90;6.53;;;20.10;60.20;;;;;;5033871;28;20040;-60
2022/07/25 04:52:38;;;;;;;9.18;6.82;;;20.10;60.10;;;;;;5045328;28;20025;-59
2022/07/25 04:55:04;;;;;;;8.13;6.22;;;20.20;60.20;;;;;;5045473;28;20030;-59
2022/07/25 04:57:30;;;;;;;9.35;6.75;;;20.30;60.40;;;;;;5033747;28;20467;-59
2022/07/25 04:59:57;;;;;;;11.07;6.47;;;20.30;60.30;;;;;;5030190;28;20030;-59
2022/07/25 05:02:23;;;;;;;12.50;7.00;;;20.40;60.30;;;;;;5029328;28;20041;-59
2022/07/25 05:04:49;;;;;;;8.25;6.57;;;20.50;60.20;;;;;;5046093;28;20048;-60
2022/07/25 05:07:15;;;;;;;10.05;6.97;;;20.60;60.10;;;;;;5036932;28;20034;-59
2022/07/25 05:09:41;;;;;;;8.88;6.43;;;20.70;60.10;;;;;;5041384;28;20082;-60
2022/07/25 05:12:07;;;;;;;9.65;5.65;;;20.80;60.00;;;;;;5031088;28;20033;-59
2022/07/25 05:14:32;;;;;;;9.07;5.82;;;20.90;59.80;;;;;;5031802;28;20057;-59
2022/07/25 05:16:58;;;;;;;12.50;7.30;;;21.00;59.60;;;;;;5037506;28;20037;-59
2022/07/25 05:19:24;;;;;;;10.13;6.50;;;21.00;59.50;;;;;;5031502;28;20093;-60
2022/07/25 05:21:50;;;;;;;8.35;6.22;;;21.10;59.30;;;;;;5039396;28;20057;-58
2022/07/25 05:24:16;;;;;;;7.90;6.28;;;21.20;59.30;;;;;;5030011;28;20022;-60
2022/07/25 05:26:43;;;;;;;9.18;6.32;;;21.30;59.10;;;;;;5039327;28;20033;-59
2022/07/25 05:29:09;;;;;;;13.45;7.05;;;21.40;59.20;;;;;;5038632;28;20100;-60
2022/07/25 05:31:35;;;;;;;11.32;6.35;;;21.50;59.10;;;;;;5061157;28;20388;-59
2022/07/25 05:34:01;;;;;;;7.55;6.55;;;21.60;58.90;;;;;;5035495;28;20052;-59
2022/07/25 05:36:27;;;;;;;8.75;5.72;;;21.70;58.80;;;;;;5031141;28;20687;-58
2022/07/25 05:38:53;;;;;;;8.00;6.22;;;21.80;58.70;;;;;;5032627;28;20049;-59
2022/07/25 05:41:19;;;;;;;11.18;6.35;;;21.90;58.60;;;;;;5039897;28;20053;-58
2022/07/25 05:43:46;;;;;;;10.20;6.45;;;22.00;58.60;;;;;;5038149;28;20083;-61
2022/07/25 05:46:12;;;;;;;7.85;6.70;;;22.10;58.40;;;;;;5043020;28;20033;-61
2022/07/25 05:48:38;;;;;;;7.07;5.75;;;22.30;58.30;;;;;;5037905;28;20025;-59
2022/07/25 05:51:04;;;;;;;8.02;6.53;;;22.40;58.10;;;;;;5047796;28;20032;-60
2022/07/25 05:53:29;;;;;;;8.35;6.22;;;22.50;57.90;;;;;;5037420;28;20038;-60
2022/07/25 05:55:55;;;;;;;10.40;6.75;;;22.60;57.80;;;;;;5042157;28;20036;-59
2022/07/25 05:58:21;;;;;;;10.55;7.22;;;22.80;57.60;;;;;;5040878;28;20408;-59
2022/07/25 06:00:47;;;;;;;10.35;6.75;;;22.90;57.40;;;;;;5044172;28;20030;-59
2022/07/25 06:03:13;;;;;;;9.23;7.45;;;23.00;57.30;;;;;;5047405;28;20033;-59
2022/07/25 06:05:38;;;;;;;9.50;7.15;;;23.20;57.00;;;;;;5040922;28;20056;-58
2022/07/25 06:08:04;;;;;;;9.68;6.72;;;23.30;56.80;;;;;;5034891;28;20069;-59
2022/07/25 06:10:30;;;;;;;9.15;7.80;;;23.50;56.50;;;;;;5036995;28;20033;-60
2022/07/25 06:12:55;;;;;;;11.23;7.57;;;23.60;56.30;;;;;;5044324;28;20045;-59
2022/07/25 06:15:21;;;;;;;13.20;8.18;;;23.80;56.10;;;;;;5043147;28;20589;-59
2022/07/25 06:17:47;;;;;;;10.52;7.50;;;23.90;55.80;;;;;;5037539;28;20029;-59
2022/07/25 06:20:12;;;;;;;12.88;8.18;;;24.00;55.70;;;;;;5040941;28;20036;-59
2022/07/25 06:22:39;;;;;;;16.60;8.50;;;24.20;55.40;;;;;;5049895;28;20044;-60
2022/07/25 06:25:05;;;;;;;10.75;7.68;;;24.30;55.20;;;;;;5042703;28;20452;-60
2022/07/25 06:27:38;;;;;;;11.15;7.50;;;24.40;54.90;;;;;;5041630;28;20029;-59
2022/07/25 06:30:08;;;;;;;11.07;7.88;;;24.60;54.90;;;;;;5029924;28;20038;-59
2022/07/25 06:32:34;;;;;;;10.60;7.85;;;24.70;54.90;;;;;;5048760;28;20026;-59
2022/07/25 06:35:00;;;;;;;18.20;8.10;;;24.90;55.00;;;;;;5048102;28;20025;-58
2022/07/25 06:37:26;;;;;;;10.48;7.97;;;25.00;54.20;;;;;;5040957;28;20679;-61
2022/07/25 06:39:51;;;;;;;16.45;7.65;;;25.10;54.00;;;;;;5049617;28;20060;-59
2022/07/25 06:42:17;;;;;;;16.60;8.13;;;25.20;53.90;;;;;;5054565;28;20601;-60
2022/07/25 06:44:43;;;;;;;13.00;8.38;;;25.30;53.60;;;;;;5049057;28;20025;-60
2022/07/25 06:47:11;;;;;;;11.38;7.40;;;25.40;53.40;;;;;;5043464;28;20726;-58
2022/07/25 06:49:41;;;;;;;19.85;7.63;;;25.50;53.50;;;;;;5044019;28;20068;-59
2022/07/25 06:52:07;;;;;;;14.35;8.45;;;25.60;53.40;;;;;;5051157;28;20074;-59
2022/07/25 06:54:33;;;;;;;12.32;8.35;;;25.70;53.40;;;;;;5045410;28;20022;-59
2022/07/25 06:56:59;;;;;;;12.02;8.90;;;25.80;53.10;;;;;;5054453;28;20030;-59
2022/07/25 06:59:25;;;;;;;14.98;8.25;;;26.00;53.20;;;;;;5045626;28;20113;-59
2022/07/25 07:01:51;;;;;;;16.40;7.65;;;26.10;53.00;;;;;;5048251;28;20038;-59
2022/07/25 07:04:17;;;;;;;9.85;7.65;;;26.20;52.80;;;;;;5036418;28;20041;-59
2022/07/25 07:06:42;;;;;;;17.25;8.75;;;26.30;52.50;;;;;;5042519;28;20156;-59
2022/07/25 07:09:09;;;;;;;10.45;8.95;;;26.40;52.30;;;;;;5040022;28;20053;-59
2022/07/25 07:11:35;;;;;;;12.63;8.90;;;26.60;52.10;;;;;;5034427;28;20108;-59
2022/07/25 07:14:04;;;;;;;10.27;8.15;;;26.70;51.80;;;;;;5041456;28;20079;-59
2022/07/25 07:16:30;;;;;;;11.10;8.77;;;26.80;51.50;;;;;;5042918;28;20055;-59
2022/07/25 07:18:56;;;;;;;17.45;9.48;;;26.90;51.50;;;;;;5045243;28;20034;-58
2022/07/25 07:21:22;;;;;;;10.75;8.43;;;27.00;51.40;;;;;;5036086;28;20033;-59
2022/07/25 07:23:49;;;;;;;11.07;7.95;;;27.10;51.20;;;;;;5032677;28;20022;-58
2022/07/25 07:26:14;;;;;;;10.57;7.90;;;27.30;51.20;;;;;;5029366;28;20037;-59
2022/07/25 07:28:40;;;;;;;11.20;7.82;;;27.40;50.80;;;;;;5031800;28;20049;-59
2022/07/25 07:31:06;;;;;;;10.93;7.97;;;27.50;50.60;;;;;;5027775;28;20794;-59
2022/07/25 07:33:32;;;;;;;10.48;7.63;;;27.60;50.40;;;;;;5039171;28;20036;-58
2022/07/25 07:35:58;;;;;;;7.97;6.75;;;27.70;50.70;;;;;;5046890;28;20065;-59
2022/07/25 07:38:24;;;;;;;14.52;7.88;;;27.80;50.60;;;;;;5038597;28;20075;-59
2022/07/25 07:40:50;;;;;;;11.45;6.93;;;27.90;50.20;;;;;;5040419;28;20025;-60
2022/07/25 07:43:16;;;;;;;12.38;6.82;;;28.00;50.40;;;;;;5041320;28;20086;-59
2022/07/25 07:45:42;;;;;;;9.68;7.38;;;28.20;50.20;;;;;;5042299;28;20033;-60
2022/07/25 07:48:08;;;;;;;9.75;6.85;;;28.30;49.70;;;;;;5040802;28;20108;-59
2022/07/25 07:50:34;;;;;;;11.35;6.47;;;28.40;49.30;;;;;;5063052;28;20111;-60
2022/07/25 07:53:00;;;;;;;12.23;6.70;;;28.50;49.40;;;;;;5043232;28;20113;-60
2022/07/25 07:55:44;;;;;;;11.43;6.70;;;28.70;49.20;;;;;;5062868;28;20040;-60
2022/07/25 07:58:11;;;;;;;11.57;6.30;;;28.80;49.00;;;;;;5042500;28;20041;-60
2022/07/25 08:00:40;;;;;;;9.90;6.22;;;28.90;48.80;;;;;;5062990;28;20071;-59
2022/07/25 08:03:07;;;;;;;6.68;5.80;;;29.10;48.70;;;;;;5051090;28;20037;-59
2022/07/25 08:05:36;;;;;;;7.32;6.05;;;29.20;48.10;;;;;;5043676;28;20034;-59
2022/07/25 08:08:03;;;;;;;9.30;6.10;;;29.40;47.70;;;;;;5053963;28;20056;-59
2022/07/25 08:10:31;;;;;;;13.05;6.35;;;29.50;47.40;;;;;;5054347;28;20029;-59
2022/07/25 08:12:58;;;;;;;10.80;5.47;;;29.60;47.10;;;;;;5055903;28;20021;-60
2022/07/25 08:15:25;;;;;;;13.95;6.55;;;29.70;46.90;;;;;;5023622;28;20025;-60
2022/07/25 08:17:51;;;;;;;6.65;5.82;;;29.80;46.90;;;;;;5060335;28;20507;-59
2022/07/25 08:20:19;;;;;;;7.97;6.20;;;29.90;47.40;;;;;;5063011;28;20079;-60
2022/07/25 08:22:46;;;;;;;20.38;6.57;;;30.00;47.50;;;;;;5042061;28;20029;-61
2022/07/25 08:25:17;;;;;;;10.38;6.05;;;30.20;46.90;;;;;;5061974;28;20025;-59
2022/07/25 08:27:43;;;;;;;6.28;5.20;;;30.40;46.40;;;;;;5038864;28;20029;-59
2022/07/25 08:30:11;;;;;;;8.65;5.32;;;30.50;46.70;;;;;;5063021;28;20040;-59
2022/07/25 08:32:49;;;;;;;8.43;5.78;;;30.70;46.70;;;;;;5042201;28;20045;-60
2022/07/25 08:35:16;;;;;;;10.80;5.75;;;30.80;46.10;;;;;;5062553;28;20448;-59
2022/07/25 08:37:42;;;;;;;7.03;5.55;;;31.00;45.40;;;;;;5041330;28;20025;-58
2022/07/25 08:40:09;;;;;;;6.07;5.18;;;31.20;45.50;;;;;;5061768;28;20036;-60
2022/07/25 08:42:34;;;;;;;8.13;5.35;;;31.30;44.80;;;;;;5041814;28;20202;-59
2022/07/25 08:45:03;;;;;;;7.55;5.72;;;31.40;44.60;;;;;;5061667;28;20029;-59
2022/07/25 08:47:30;;;;;;;9.55;5.05;;;31.50;43.60;;;;;;5041458;28;20029;-59
2022/07/25 08:49:57;;;;;;;5.80;5.20;;;31.60;43.80;;;;;;5061866;28;20033;-60
2022/07/25 08:52:23;;;;;;;8.13;5.38;;;31.70;43.80;;;;;;5042799;28;20449;-59
2022/07/25 08:54:49;;;;;;;9.25;5.13;;;31.80;43.50;;;;;;5062577;28;20116;-59
2022/07/25 08:57:16;;;;;;;6.63;5.00;;;31.90;43.90;;;;;;5041667;28;20132;-59
2022/07/25 08:59:42;;;;;;;7.47;4.68;;;32.00;43.70;;;;;;5062104;28;20044;-60
2022/07/25 09:02:13;;;;;;;7.43;5.10;;;32.10;43.10;;;;;;5042825;28;20109;-61
2022/07/25 09:04:38;;;;;;;7.43;5.03;;;32.20;42.90;;;;;;5041281;28;20033;-59
2022/07/25 09:07:05;;;;;;;11.50;5.72;;;32.30;42.90;;;;;;5061351;28;20506;-59
2022/07/25 09:09:37;;;;;;;7.35;5.20;;;32.40;43.10;;;;;;5041534;28;20021;-59
2022/07/25 09:12:06;;;;;;;8.50;4.78;;;32.50;42.90;;;;;;5022521;28;20029;-61
2022/07/25 09:14:42;;;;;;;8.75;5.60;;;32.70;42.80;;;;;;5025528;28;20038;-59
2022/07/25 09:17:07;;;;;;;7.63;5.57;;;32.80;42.10;;;;;;5060999;28;20067;-58
2022/07/25 09:19:33;;;;;;;8.00;5.35;;;32.90;41.90;;;;;;5041455;28;20423;-60
2022/07/25 09:22:05;;;;;;;11.45;4.82;;;32.90;41.90;;;;;;5060998;28;20075;-59
2022/07/25 09:24:31;;;;;;;16.55;5.43;;;33.00;41.70;;;;;;5045048;28;20036;-58
2022/07/25 09:26:59;;;;;;;7.88;5.07;;;33.10;41.70;;;;;;5042348;28;20033;-60
2022/07/25 09:29:30;;;;;;;6.28;5.03;;;33.20;42.00;;;;;;5042725;28;20484;-59
2022/07/25 09:31:58;;;;;;;8.25;5.60;;;33.30;41.20;;;;;;5022232;28;20033;-60
2022/07/25 09:34:38;;;;;;;6.88;5.13;;;33.40;41.30;;;;;;5043518;28;20037;-59
2022/07/25 09:37:07;;;;;;;7.53;4.95;;;33.50;41.20;;;;;;5061637;28;20112;-60
2022/07/25 09:39:49;;;;;;;8.95;5.90;;;33.70;41.20;;;;;;5041248;28;20057;-59
2022/07/25 09:42:15;;;;;;;6.57;5.20;;;33.80;40.70;;;;;;5021754;28;20062;-60
2022/07/25 09:44:41;;;;;;;6.50;4.95;;;33.90;40.90;;;;;;5040395;28;20041;-60
2022/07/25 09:47:14;;;;;;;7.07;4.55;;;34.00;40.60;;;;;;5060953;28;20020;-60
2022/07/25 09:49:44;;;;;;;5.70;4.93;;;34.10;40.20;;;;;;5042828;28;20036;-59
2022/07/25 09:52:10;;;;;;;5.95;5.15;;;34.20;39.80;;;;;;5064722;28;20100;-61
2022/07/25 09:54:37;;;;;;;5.57;4.78;;;34.40;39.40;;;;;;5044990;28;20048;-59
2022/07/25 09:57:04;;;;;;;14.63;5.70;;;34.50;39.30;;;;;;5065149;28;20175;-60
2022/07/25 09:59:29;;;;;;;5.97;4.93;;;34.60;39.20;;;;;;5045204;28;20025;-59
2022/07/25 10:02:15;;;;;;;6.88;5.28;;;34.70;39.70;;;;;;5063811;28;20105;-59
2022/07/25 10:05:07;;;;;;;11.15;5.00;;;34.80;38.80;;;;;;5043461;28;20037;-59
2022/07/25 10:07:40;;;;;;;7.93;4.75;;;35.00;38.60;;;;;;5026501;28;20034;-59
2022/07/25 10:10:06;;;;;;;6.88;4.72;;;35.10;38.40;;;;;;5052175;28;20059;-59
2022/07/25 10:12:32;;;;;;;9.70;4.70;;;35.20;38.60;;;;;;5063473;28;20037;-60
2022/07/25 10:15:10;;;;;;;6.63;4.40;;;35.30;37.80;;;;;;5026282;28;20026;-60
2022/07/25 10:17:37;;;;;;;8.70;4.85;;;35.40;37.40;;;;;;5063594;28;20055;-59
2022/07/25 10:20:05;;;;;;;6.70;5.03;;;35.50;37.00;;;;;;5065440;28;20534;-60
2022/07/25 10:22:40;;;;;;;4.32;3.88;;;35.50;35.90;;;;;;5042887;28;20076;-60
2022/07/25 10:25:18;;;;;;;5.00;4.07;;;35.50;35.50;;;;;;5064230;28;20056;-59
2022/07/25 10:27:47;;;;;;;3.45;2.63;;;35.60;35.20;;;;;;5026311;28;20026;-59
2022/07/25 10:30:24;;;;;;;2.60;2.40;;;35.60;32.10;;;;;;5043736;28;20047;-59
2022/07/25 10:32:58;;;;;;;2.72;2.20;;;35.60;30.60;;;;;;5033292;28;20400;-59
2022/07/25 10:35:28;;;;;;;2.90;1.92;;;35.60;29.20;;;;;;5045062;28;20033;-60
2022/07/25 10:37:55;;;;;;;3.15;2.00;;;35.70;29.90;;;;;;5063666;28;20112;-60
2022/07/25 10:40:27;;;;;;;2.55;1.85;;;35.80;29.30;;;;;;5062574;28;20048;-59
2022/07/25 10:43:20;;;;;;;2.13;1.70;;;35.90;29.00;;;;;;5060664;28;20048;-61
2022/07/25 10:45:55;;;;;;;3.58;2.25;;;36.00;28.20;;;;;;5018366;28;20046;-60
2022/07/25 10:48:24;;;;;;;2.13;1.73;;;36.00;27.70;;;;;;5056925;28;20022;-60
2022/07/25 10:50:57;;;;;;;2.38;1.90;;;36.10;27.70;;;;;;5064873;28;20047;-61
2022/07/25 10:53:42;;;;;;;2.97;1.90;;;36.10;26.90;;;;;;5030452;28;20084;-60
2022/07/25 10:56:13;;;;;;;2.00;1.80;;;36.10;27.20;;;;;;5064889;28;20028;-59
2022/07/25 10:59:00;;;;;;;2.60;2.00;;;36.20;27.80;;;;;;5040788;28;20021;-60
2022/07/25 11:01:27;;;;;;;3.75;1.90;;;36.20;26.80;;;;;;5024993;28;20080;-59
2022/07/25 11:03:55;;;;;;;2.35;1.60;;;36.30;27.90;;;;;;5052777;28;20100;-59
2022/07/25 11:06:36;;;;;;;2.22;1.60;;;36.40;27.80;;;;;;5064257;28;20088;-59
2022/07/25 11:09:16;;;;;;;2.08;1.88;;;36.50;27.40;;;;;;5043820;28;20136;-59
2022/07/25 11:11:47;;;;;;;5.53;2.20;;;36.60;26.10;;;;;;5024638;28;20057;-59
2022/07/25 11:14:25;;;;;;;1.85;1.73;;;36.60;27.10;;;;;;5049315;28;20034;-59
2022/07/25 11:16:53;;;;;;;1.92;1.73;;;36.60;26.70;;;;;;5064223;28;20087;-59
2022/07/25 11:19:26;;;;;;;2.90;1.80;;;36.70;26.70;;;;;;5043581;28;20037;-60
2022/07/25 11:21:58;;;;;;;2.53;1.92;;;36.70;26.50;;;;;;5024578;28;20030;-61
2022/07/25 11:24:39;;;;;;;2.63;1.95;;;36.80;26.70;;;;;;4939604;28;20048;-59
2022/07/25 11:27:06;;;;;;;2.85;2.03;;;36.80;26.60;;;;;;5042942;28;20033;-60
2022/07/25 11:29:33;;;;;;;3.20;2.40;;;36.90;27.00;;;;;;5047305;28;20041;-60
2022/07/25 11:32:05;;;;;;;2.22;1.73;;;36.90;27.10;;;;;;5063455;28;20032;-59
2022/07/25 11:34:32;;;;;;;3.35;2.38;;;36.90;26.90;;;;;;5042906;28;20137;-61
2022/07/25 11:37:00;;;;;;;3.75;2.40;;;37.00;26.40;;;;;;5063238;28;20064;-60
2022/07/25 11:39:29;;;;;;;2.55;2.15;;;37.00;26.70;;;;;;5042892;28;20060;-60
2022/07/25 11:42:10;;;;;;;6.03;2.10;;;37.10;26.80;;;;;;5063428;28;20104;-59
2022/07/25 11:44:38;;;;;;;3.00;2.20;;;37.10;27.00;;;;;;5043227;28;20029;-59
2022/07/25 11:47:20;;;;;;;2.65;2.45;;;37.20;27.00;;;;;;5063808;28;20087;-60
2022/07/25 11:49:49;;;;;;;3.08;2.35;;;37.30;26.40;;;;;;5039466;28;20022;-61
2022/07/25 11:52:23;;;;;;;3.42;2.65;;;37.30;27.10;;;;;;5063534;28;20029;-61
2022/07/25 11:54:53;;;;;;;4.90;2.00;;;37.40;26.50;;;;;;5039072;28;20108;-61
2022/07/25 11:57:21;;;;;;;7.93;2.88;;;37.40;27.00;;;;;;5023667;28;20028;-60
2022/07/25 11:59:47;;;;;;;3.13;2.83;;;37.50;26.60;;;;;;5045393;28;20037;-59
2022/07/25 12:02:46;;;;;;;4.22;2.58;;;37.50;26.10;;;;;;5062784;28;20037;-61
2022/07/25 12:05:13;;;;;;;5.07;2.63;;;37.50;26.40;;;;;;5058685;28;20257;-59
2022/07/25 12:07:50;;;;;;;6.00;2.50;;;37.50;25.90;;;;;;5042684;28;20048;-59
2022/07/25 12:10:22;;;;;;;4.55;2.50;;;37.50;26.70;;;;;;5023145;28;20097;-61
2022/07/25 12:12:52;;;;;;;3.38;2.45;;;37.60;26.00;;;;;;5038723;28;20423;-61
2022/07/25 12:15:28;;;;;;;5.88;2.92;;;37.60;26.10;;;;;;5027062;28;20044;-59
2022/07/25 12:17:54;;;;;;;3.22;2.42;;;37.50;25.80;;;;;;5039464;28;20044;-60
2022/07/25 12:20:25;;;;;;;5.80;2.83;;;37.40;25.80;;;;;;5039892;28;20072;-59
2022/07/25 12:22:54;;;;;;;3.70;2.75;;;37.20;26.30;;;;;;5039858;28;20429;-59
2022/07/25 12:25:21;;;;;;;5.30;2.85;;;37.10;26.30;;;;;;5039898;28;20061;-59
2022/07/25 12:27:47;;;;;;;3.75;2.88;;;37.10;26.60;;;;;;5040008;28;20045;-58
2022/07/25 12:30:14;;;;;;;4.90;2.67;;;37.10;27.40;;;;;;5039211;28;20025;-58
2022/07/25 12:32:40;;;;;;;2.95;2.60;;;37.20;26.80;;;;;;5039702;28;20045;-61
2022/07/25 12:35:07;;;;;;;5.95;2.85;;;37.20;26.20;;;;;;5056918;28;20065;-60
2022/07/25 12:37:33;;;;;;;3.45;2.90;;;37.30;26.20;;;;;;5040054;28;20097;-60
2022/07/25 12:39:59;;;;;;;3.72;2.75;;;37.30;26.70;;;;;;5035371;28;20045;-60
2022/07/25 12:42:27;;;;;;;3.63;2.90;;;37.40;26.30;;;;;;5061481;28;20045;-60
2022/07/25 12:44:53;;;;;;;3.65;2.70;;;37.40;26.20;;;;;;5041415;28;20117;-60
2022/07/25 12:47:19;;;;;;;3.70;2.53;;;37.40;26.10;;;;;;5061605;28;20196;-60